sensor_id;sensor_type;location;lat;lon;timestamp;P1;durP1;ratioP1;P2;durP2;ratioP2
61617;SDS011;47518;51.776;9.370;2023-03-14T00:01:33;4.45;;;2.70;;
61617;SDS011;47518;51.776;9.370;2023-03-14T00:03:58;5.15;;;2.90;;
61617;SDS011;47518;51.776;9.370;2023-03-14T00:06:27;2.92;;;2.63;;
61617;SDS011;47518;51.776;9.370;2023-03-14T00:08:52;3.05;;;2.50;;
61617;SDS011;47518;51.776;9.370;2023-03-14T00:11:19;3.33;;;2.50;;
61617;SDS011;47518;51.776;9.370;2023-03-14T00:13:50;2.92;;;2.70;;
61617;SDS011;47518;51.776;9.370;2023-03-14T00:16:16;2.80;;;2.50;;
61617;SDS011;47518;51.776;9.370;2023-03-14T00:18:45;4.28;;;2.42;;
61617;SDS011;47518;51.776;9.370;2023-03-14T00:21:14;5.18;;;2.97;;
61617;SDS011;47518;51.776;9.370;2023-03-14T00:23:43;4.28;;;3.15;;
61617;SDS011;47518;51.776;9.370;2023-03-14T00:26:10;2.75;;;2.50;;
61617;SDS011;47518;51.776;9.370;2023-03-14T00:28:38;2.40;;;2.30;;
61617;SDS011;47518;51.776;9.370;2023-03-14T00:31:04;2.80;;;2.60;;
61617;SDS011;47518;51.776;9.370;2023-03-14T00:33:31;2.80;;;2.60;;
61617;SDS011;47518;51.776;9.370;2023-03-14T00:35:58;3.70;;;2.40;;
61617;SDS011;47518;51.776;9.370;2023-03-14T00:38:34;2.97;;;2.30;;
61617;SDS011;47518;51.776;9.370;2023-03-14T00:41:02;2.63;;;2.45;;
61617;SDS011;47518;51.776;9.370;2023-03-14T00:43:29;3.20;;;2.65;;
61617;SDS011;47518;51.776;9.370;2023-03-14T00:45:54;3.28;;;2.60;;
61617;SDS011;47518;51.776;9.370;2023-03-14T00:48:20;2.63;;;2.40;;
61617;SDS011;47518;51.776;9.370;2023-03-14T00:50:48;3.00;;;2.20;;
61617;SDS011;47518;51.776;9.370;2023-03-14T00:53:14;2.50;;;2.30;;
61617;SDS011;47518;51.776;9.370;2023-03-14T00:55:40;2.60;;;2.40;;
61617;SDS011;47518;51.776;9.370;2023-03-14T00:58:07;3.60;;;2.50;;
61617;SDS011;47518;51.776;9.370;2023-03-14T01:00:33;2.88;;;2.30;;
61617;SDS011;47518;51.776;9.370;2023-03-14T01:03:01;3.03;;;2.40;;
61617;SDS011;47518;51.776;9.370;2023-03-14T01:05:26;2.78;;;2.38;;
61617;SDS011;47518;51.776;9.370;2023-03-14T01:07:52;3.70;;;2.40;;
61617;SDS011;47518;51.776;9.370;2023-03-14T01:10:20;2.97;;;2.17;;
61617;SDS011;47518;51.776;9.370;2023-03-14T01:12:46;4.97;;;2.20;;
61617;SDS011;47518;51.776;9.370;2023-03-14T01:15:11;3.45;;;2.47;;
61617;SDS011;47518;51.776;9.370;2023-03-14T01:17:36;4.30;;;2.30;;
61617;SDS011;47518;51.776;9.370;2023-03-14T01:20:04;3.60;;;2.45;;
61617;SDS011;47518;51.776;9.370;2023-03-14T01:22:31;3.10;;;2.53;;
61617;SDS011;47518;51.776;9.370;2023-03-14T01:24:57;4.22;;;2.50;;
61617;SDS011;47518;51.776;9.370;2023-03-14T01:27:22;5.03;;;2.42;;
61617;SDS011;47518;51.776;9.370;2023-03-14T01:29:48;2.75;;;2.40;;
61617;SDS011;47518;51.776;9.370;2023-03-14T01:32:13;2.67;;;2.30;;
61617;SDS011;47518;51.776;9.370;2023-03-14T01:34:39;3.35;;;2.40;;
61617;SDS011;47518;51.776;9.370;2023-03-14T01:37:04;3.72;;;2.10;;
61617;SDS011;47518;51.776;9.370;2023-03-14T01:39:31;3.72;;;2.17;;
61617;SDS011;47518;51.776;9.370;2023-03-14T01:41:56;3.45;;;2.70;;
61617;SDS011;47518;51.776;9.370;2023-03-14T01:44:23;3.10;;;2.42;;
61617;SDS011;47518;51.776;9.370;2023-03-14T01:46:49;2.30;;;2.10;;
61617;SDS011;47518;51.776;9.370;2023-03-14T01:49:17;2.55;;;2.05;;
61617;SDS011;47518;51.776;9.370;2023-03-14T01:54:44;2.40;;;2.20;;
61617;SDS011;47518;51.776;9.370;2023-03-14T01:57:16;4.40;;;2.50;;
61617;SDS011;47518;51.776;9.370;2023-03-14T02:00:01;3.03;;;2.30;;
61617;SDS011;47518;51.776;9.370;2023-03-14T02:02:36;3.28;;;2.22;;
61617;SDS011;47518;51.776;9.370;2023-03-14T02:05:02;3.25;;;2.20;;
61617;SDS011;47518;51.776;9.370;2023-03-14T02:07:31;2.58;;;2.13;;
61617;SDS011;47518;51.776;9.370;2023-03-14T02:10:02;2.35;;;2.20;;
61617;SDS011;47518;51.776;9.370;2023-03-14T02:12:28;2.30;;;2.08;;
61617;SDS011;47518;51.776;9.370;2023-03-14T02:14:54;2.92;;;2.30;;
61617;SDS011;47518;51.776;9.370;2023-03-14T02:17:20;2.75;;;2.50;;
61617;SDS011;47518;51.776;9.370;2023-03-14T02:19:50;5.53;;;2.40;;
61617;SDS011;47518;51.776;9.370;2023-03-14T02:22:41;2.38;;;2.15;;
61617;SDS011;47518;51.776;9.370;2023-03-14T02:25:19;3.80;;;2.42;;
61617;SDS011;47518;51.776;9.370;2023-03-14T02:28:06;2.42;;;2.10;;
61617;SDS011;47518;51.776;9.370;2023-03-14T02:30:32;2.45;;;2.08;;
61617;SDS011;47518;51.776;9.370;2023-03-14T02:32:59;4.05;;;2.28;;
61617;SDS011;47518;51.776;9.370;2023-03-14T02:35:33;4.57;;;2.20;;
61617;SDS011;47518;51.776;9.370;2023-03-14T02:38:13;4.55;;;2.10;;
61617;SDS011;47518;51.776;9.370;2023-03-14T02:40:43;2.28;;;1.90;;
61617;SDS011;47518;51.776;9.370;2023-03-14T02:43:09;4.00;;;2.20;;
61617;SDS011;47518;51.776;9.370;2023-03-14T02:45:37;2.50;;;2.30;;
61617;SDS011;47518;51.776;9.370;2023-03-14T02:48:07;5.03;;;2.10;;
61617;SDS011;47518;51.776;9.370;2023-03-14T02:50:38;2.58;;;2.10;;
61617;SDS011;47518;51.776;9.370;2023-03-14T02:53:11;2.92;;;2.20;;
61617;SDS011;47518;51.776;9.370;2023-03-14T02:55:40;3.28;;;2.20;;
61617;SDS011;47518;51.776;9.370;2023-03-14T02:58:12;4.20;;;2.50;;
61617;SDS011;47518;51.776;9.370;2023-03-14T03:00:37;2.00;;;1.90;;
61617;SDS011;47518;51.776;9.370;2023-03-14T03:03:03;2.85;;;2.10;;
61617;SDS011;47518;51.776;9.370;2023-03-14T03:05:31;2.40;;;2.20;;
61617;SDS011;47518;51.776;9.370;2023-03-14T03:07:57;3.17;;;2.40;;
61617;SDS011;47518;51.776;9.370;2023-03-14T03:10:26;2.85;;;2.30;;
61617;SDS011;47518;51.776;9.370;2023-03-14T03:12:53;3.35;;;2.30;;
61617;SDS011;47518;51.776;9.370;2023-03-14T03:15:19;3.83;;;2.30;;
61617;SDS011;47518;51.776;9.370;2023-03-14T03:17:44;2.28;;;2.17;;
61617;SDS011;47518;51.776;9.370;2023-03-14T03:20:10;2.40;;;2.15;;
61617;SDS011;47518;51.776;9.370;2023-03-14T03:22:36;2.33;;;2.03;;
61617;SDS011;47518;51.776;9.370;2023-03-14T03:25:03;2.08;;;1.98;;
61617;SDS011;47518;51.776;9.370;2023-03-14T03:27:33;4.97;;;2.13;;
61617;SDS011;47518;51.776;9.370;2023-03-14T03:29:59;2.50;;;2.20;;
61617;SDS011;47518;51.776;9.370;2023-03-14T03:32:25;3.03;;;2.30;;
61617;SDS011;47518;51.776;9.370;2023-03-14T03:34:53;5.00;;;2.45;;
61617;SDS011;47518;51.776;9.370;2023-03-14T03:37:19;2.63;;;2.33;;
61617;SDS011;47518;51.776;9.370;2023-03-14T03:39:45;3.40;;;2.45;;
61617;SDS011;47518;51.776;9.370;2023-03-14T03:42:10;3.22;;;3.00;;
61617;SDS011;47518;51.776;9.370;2023-03-14T03:44:36;4.53;;;2.90;;
61617;SDS011;47518;51.776;9.370;2023-03-14T03:47:02;2.90;;;2.70;;
61617;SDS011;47518;51.776;9.370;2023-03-14T03:49:31;3.08;;;2.58;;
61617;SDS011;47518;51.776;9.370;2023-03-14T03:51:57;2.92;;;2.70;;
61617;SDS011;47518;51.776;9.370;2023-03-14T03:54:23;4.25;;;2.70;;
61617;SDS011;47518;51.776;9.370;2023-03-14T03:56:51;4.93;;;2.88;;
61617;SDS011;47518;51.776;9.370;2023-03-14T03:59:17;5.85;;;2.20;;
61617;SDS011;47518;51.776;9.370;2023-03-14T04:01:43;2.88;;;2.67;;
61617;SDS011;47518;51.776;9.370;2023-03-14T04:04:08;2.55;;;2.35;;
61617;SDS011;47518;51.776;9.370;2023-03-14T04:06:34;3.30;;;2.55;;
61617;SDS011;47518;51.776;9.370;2023-03-14T04:09:12;3.05;;;2.38;;
61617;SDS011;47518;51.776;9.370;2023-03-14T04:11:38;2.95;;;2.40;;
61617;SDS011;47518;51.776;9.370;2023-03-14T04:14:04;4.68;;;2.30;;
61617;SDS011;47518;51.776;9.370;2023-03-14T04:16:38;2.75;;;2.25;;
61617;SDS011;47518;51.776;9.370;2023-03-14T04:19:07;2.47;;;2.30;;
61617;SDS011;47518;51.776;9.370;2023-03-14T04:21:35;2.10;;;2.00;;
61617;SDS011;47518;51.776;9.370;2023-03-14T04:24:08;2.53;;;1.90;;
61617;SDS011;47518;51.776;9.370;2023-03-14T04:26:39;2.15;;;1.80;;
61617;SDS011;47518;51.776;9.370;2023-03-14T04:29:04;1.50;;;1.50;;
61617;SDS011;47518;51.776;9.370;2023-03-14T04:31:33;1.70;;;1.60;;
61617;SDS011;47518;51.776;9.370;2023-03-14T04:34:01;2.00;;;1.60;;
61617;SDS011;47518;51.776;9.370;2023-03-14T04:36:32;1.60;;;1.50;;
61617;SDS011;47518;51.776;9.370;2023-03-14T04:39:01;1.98;;;1.70;;
61617;SDS011;47518;51.776;9.370;2023-03-14T04:41:29;2.00;;;1.90;;
61617;SDS011;47518;51.776;9.370;2023-03-14T04:43:58;2.13;;;1.90;;
61617;SDS011;47518;51.776;9.370;2023-03-14T04:49:12;3.63;;;1.80;;
61617;SDS011;47518;51.776;9.370;2023-03-14T04:51:55;2.58;;;2.00;;
61617;SDS011;47518;51.776;9.370;2023-03-14T04:54:20;2.75;;;2.20;;
61617;SDS011;47518;51.776;9.370;2023-03-14T04:56:52;2.45;;;2.25;;
61617;SDS011;47518;51.776;9.370;2023-03-14T04:59:22;2.10;;;2.00;;
61617;SDS011;47518;51.776;9.370;2023-03-14T05:01:49;1.80;;;1.70;;
61617;SDS011;47518;51.776;9.370;2023-03-14T05:04:17;1.70;;;1.70;;
61617;SDS011;47518;51.776;9.370;2023-03-14T05:06:49;1.80;;;1.70;;
61617;SDS011;47518;51.776;9.370;2023-03-14T05:09:20;1.40;;;1.40;;
61617;SDS011;47518;51.776;9.370;2023-03-14T05:11:49;1.75;;;1.65;;
61617;SDS011;47518;51.776;9.370;2023-03-14T05:14:21;2.15;;;1.95;;
61617;SDS011;47518;51.776;9.370;2023-03-14T05:16:46;2.10;;;2.00;;
61617;SDS011;47518;51.776;9.370;2023-03-14T05:19:12;2.65;;;2.28;;
61617;SDS011;47518;51.776;9.370;2023-03-14T05:21:37;2.53;;;2.00;;
61617;SDS011;47518;51.776;9.370;2023-03-14T05:24:03;1.70;;;1.60;;
61617;SDS011;47518;51.776;9.370;2023-03-14T05:26:31;2.08;;;1.90;;
61617;SDS011;47518;51.776;9.370;2023-03-14T05:29:03;2.90;;;1.90;;
61617;SDS011;47518;51.776;9.370;2023-03-14T05:31:30;1.73;;;1.70;;
61617;SDS011;47518;51.776;9.370;2023-03-14T05:33:55;2.08;;;1.73;;
61617;SDS011;47518;51.776;9.370;2023-03-14T05:39:13;2.33;;;2.13;;
61617;SDS011;47518;51.776;9.370;2023-03-14T05:41:38;2.67;;;1.77;;
61617;SDS011;47518;51.776;9.370;2023-03-14T05:44:04;3.40;;;2.20;;
61617;SDS011;47518;51.776;9.370;2023-03-14T05:46:50;2.85;;;1.83;;
61617;SDS011;47518;51.776;9.370;2023-03-14T05:49:15;2.78;;;2.05;;
61617;SDS011;47518;51.776;9.370;2023-03-14T05:51:40;2.08;;;1.98;;
61617;SDS011;47518;51.776;9.370;2023-03-14T05:54:05;1.98;;;1.80;;
61617;SDS011;47518;51.776;9.370;2023-03-14T05:56:31;3.30;;;2.10;;
61617;SDS011;47518;51.776;9.370;2023-03-14T05:58:57;3.05;;;2.10;;
61617;SDS011;47518;51.776;9.370;2023-03-14T06:01:25;3.17;;;2.03;;
61617;SDS011;47518;51.776;9.370;2023-03-14T06:03:51;1.85;;;1.83;;
61617;SDS011;47518;51.776;9.370;2023-03-14T06:06:52;2.15;;;1.75;;
61617;SDS011;47518;51.776;9.370;2023-03-14T06:35:10;3.78;;;2.08;;
61617;SDS011;47518;51.776;9.370;2023-03-14T06:37:44;2.95;;;1.90;;
61617;SDS011;47518;51.776;9.370;2023-03-14T06:49:45;3.45;;;2.20;;
61617;SDS011;47518;51.776;9.370;2023-03-14T06:52:40;4.53;;;2.20;;
61617;SDS011;47518;51.776;9.370;2023-03-14T06:55:14;4.20;;;2.28;;
61617;SDS011;47518;51.776;9.370;2023-03-14T06:58:26;5.40;;;2.33;;
61617;SDS011;47518;51.776;9.370;2023-03-14T07:01:01;5.28;;;2.50;;
61617;SDS011;47518;51.776;9.370;2023-03-14T07:03:27;4.18;;;2.50;;
61617;SDS011;47518;51.776;9.370;2023-03-14T07:09:55;4.93;;;2.20;;
61617;SDS011;47518;51.776;9.370;2023-03-14T07:12:21;4.70;;;2.13;;
61617;SDS011;47518;51.776;9.370;2023-03-14T07:14:54;3.97;;;2.30;;
61617;SDS011;47518;51.776;9.370;2023-03-14T07:17:23;5.13;;;2.10;;
61617;SDS011;47518;51.776;9.370;2023-03-14T07:19:58;6.00;;;2.40;;
61617;SDS011;47518;51.776;9.370;2023-03-14T07:29:10;7.65;;;2.50;;
61617;SDS011;47518;51.776;9.370;2023-03-14T07:35:13;5.70;;;2.38;;
61617;SDS011;47518;51.776;9.370;2023-03-14T07:43:38;5.85;;;2.10;;
61617;SDS011;47518;51.776;9.370;2023-03-14T07:47:07;6.22;;;2.50;;
61617;SDS011;47518;51.776;9.370;2023-03-14T07:53:01;2.90;;;2.10;;
61617;SDS011;47518;51.776;9.370;2023-03-14T07:59:20;3.28;;;2.20;;
61617;SDS011;47518;51.776;9.370;2023-03-14T08:01:48;4.43;;;2.35;;
61617;SDS011;47518;51.776;9.370;2023-03-14T08:07:31;2.78;;;1.90;;
61617;SDS011;47518;51.776;9.370;2023-03-14T08:10:32;2.33;;;2.00;;
61617;SDS011;47518;51.776;9.370;2023-03-14T08:13:08;3.97;;;1.73;;
61617;SDS011;47518;51.776;9.370;2023-03-14T08:15:48;2.40;;;1.92;;
61617;SDS011;47518;51.776;9.370;2023-03-14T08:18:26;3.45;;;2.20;;
61617;SDS011;47518;51.776;9.370;2023-03-14T08:21:11;4.68;;;2.17;;
61617;SDS011;47518;51.776;9.370;2023-03-14T08:23:46;4.53;;;1.92;;
61617;SDS011;47518;51.776;9.370;2023-03-14T08:26:12;2.13;;;1.80;;
61617;SDS011;47518;51.776;9.370;2023-03-14T08:28:38;2.78;;;1.90;;
61617;SDS011;47518;51.776;9.370;2023-03-14T08:31:05;2.08;;;1.90;;
61617;SDS011;47518;51.776;9.370;2023-03-14T08:33:36;2.72;;;1.70;;
61617;SDS011;47518;51.776;9.370;2023-03-14T08:40:13;4.57;;;1.73;;
61617;SDS011;47518;51.776;9.370;2023-03-14T08:42:40;3.05;;;1.70;;
61617;SDS011;47518;51.776;9.370;2023-03-14T08:48:54;2.65;;;1.83;;
61617;SDS011;47518;51.776;9.370;2023-03-14T08:58:34;2.00;;;1.90;;
61617;SDS011;47518;51.776;9.370;2023-03-14T09:01:17;2.08;;;1.90;;
61617;SDS011;47518;51.776;9.370;2023-03-14T09:03:49;3.90;;;1.80;;
61617;SDS011;47518;51.776;9.370;2023-03-14T09:12:45;2.38;;;1.90;;
61617;SDS011;47518;51.776;9.370;2023-03-14T09:15:16;3.72;;;3.20;;
61617;SDS011;47518;51.776;9.370;2023-03-14T09:21:15;2.13;;;1.70;;
61617;SDS011;47518;51.776;9.370;2023-03-14T09:28:16;1.60;;;1.50;;
61617;SDS011;47518;51.776;9.370;2023-03-14T09:31:13;2.83;;;1.83;;
61617;SDS011;47518;51.776;9.370;2023-03-14T09:43:11;2.65;;;2.45;;
61617;SDS011;47518;51.776;9.370;2023-03-14T09:46:11;1.58;;;1.50;;
61617;SDS011;47518;51.776;9.370;2023-03-14T09:49:11;1.58;;;1.48;;
61617;SDS011;47518;51.776;9.370;2023-03-14T09:52:11;1.50;;;1.50;;
61617;SDS011;47518;51.776;9.370;2023-03-14T09:55:21;1.50;;;1.40;;
61617;SDS011;47518;51.776;9.370;2023-03-14T09:58:12;1.60;;;1.50;;
61617;SDS011;47518;51.776;9.370;2023-03-14T10:01:04;1.50;;;1.50;;
61617;SDS011;47518;51.776;9.370;2023-03-14T10:03:39;1.48;;;1.40;;
61617;SDS011;47518;51.776;9.370;2023-03-14T10:10:19;1.60;;;1.50;;
61617;SDS011;47518;51.776;9.370;2023-03-14T10:19:16;1.45;;;1.35;;
61617;SDS011;47518;51.776;9.370;2023-03-14T10:25:23;1.23;;;1.23;;
61617;SDS011;47518;51.776;9.370;2023-03-14T10:36:27;1.50;;;1.50;;
61617;SDS011;47518;51.776;9.370;2023-03-14T10:39:23;2.33;;;2.13;;
61617;SDS011;47518;51.776;9.370;2023-03-14T10:42:06;1.80;;;1.70;;
61617;SDS011;47518;51.776;9.370;2023-03-14T11:03:11;1.80;;;1.70;;
61617;SDS011;47518;51.776;9.370;2023-03-14T11:41:14;1.70;;;1.70;;
61617;SDS011;47518;51.776;9.370;2023-03-14T12:02:21;2.15;;;1.50;;
61617;SDS011;47518;51.776;9.370;2023-03-14T12:15:30;2.35;;;1.73;;
61617;SDS011;47518;51.776;9.370;2023-03-14T12:18:01;1.80;;;1.80;;
61617;SDS011;47518;51.776;9.370;2023-03-14T12:21:19;1.60;;;1.60;;
61617;SDS011;47518;51.776;9.370;2023-03-14T12:24:17;1.60;;;1.60;;
61617;SDS011;47518;51.776;9.370;2023-03-14T12:26:52;1.63;;;1.63;;
61617;SDS011;47518;51.776;9.370;2023-03-14T12:29:28;1.60;;;1.50;;
61617;SDS011;47518;51.776;9.370;2023-03-14T12:32:25;1.50;;;1.50;;
61617;SDS011;47518;51.776;9.370;2023-03-14T12:38:13;2.00;;;1.90;;
61617;SDS011;47518;51.776;9.370;2023-03-14T12:41:01;1.42;;;1.42;;
61617;SDS011;47518;51.776;9.370;2023-03-14T12:43:53;1.65;;;1.65;;
61617;SDS011;47518;51.776;9.370;2023-03-14T12:46:26;1.50;;;1.40;;
61617;SDS011;47518;51.776;9.370;2023-03-14T12:49:07;1.50;;;1.50;;
61617;SDS011;47518;51.776;9.370;2023-03-14T12:54:43;1.50;;;1.50;;
61617;SDS011;47518;51.776;9.370;2023-03-14T12:57:20;1.58;;;1.50;;
61617;SDS011;47518;51.776;9.370;2023-03-14T13:00:00;1.80;;;1.70;;
61617;SDS011;47518;51.776;9.370;2023-03-14T13:02:48;1.60;;;1.60;;
61617;SDS011;47518;51.776;9.370;2023-03-14T13:05:55;1.80;;;1.70;;
61617;SDS011;47518;51.776;9.370;2023-03-14T13:13:37;1.50;;;1.50;;
61617;SDS011;47518;51.776;9.370;2023-03-14T13:16:10;1.80;;;1.70;;
61617;SDS011;47518;51.776;9.370;2023-03-14T13:18:41;1.70;;;1.70;;
61617;SDS011;47518;51.776;9.370;2023-03-14T13:36:53;5.18;;;2.30;;
61617;SDS011;47518;51.776;9.370;2023-03-14T13:39:25;2.50;;;2.10;;
61617;SDS011;47518;51.776;9.370;2023-03-14T13:41:53;3.72;;;2.30;;
61617;SDS011;47518;51.776;9.370;2023-03-14T13:44:38;4.57;;;2.28;;
61617;SDS011;47518;51.776;9.370;2023-03-14T13:47:05;4.43;;;2.13;;
61617;SDS011;47518;51.776;9.370;2023-03-14T13:49:44;3.70;;;2.08;;
61617;SDS011;47518;51.776;9.370;2023-03-14T13:52:22;5.78;;;2.30;;
61617;SDS011;47518;51.776;9.370;2023-03-14T13:55:22;4.95;;;2.40;;
61617;SDS011;47518;51.776;9.370;2023-03-14T13:57:52;8.27;;;2.20;;
61617;SDS011;47518;51.776;9.370;2023-03-14T14:00:23;3.08;;;1.95;;
61617;SDS011;47518;51.776;9.370;2023-03-14T14:02:53;4.45;;;2.30;;
61617;SDS011;47518;51.776;9.370;2023-03-14T14:05:26;5.20;;;2.08;;
61617;SDS011;47518;51.776;9.370;2023-03-14T14:08:02;5.25;;;2.00;;
61617;SDS011;47518;51.776;9.370;2023-03-14T14:10:31;6.07;;;2.20;;
61617;SDS011;47518;51.776;9.370;2023-03-14T14:13:04;7.22;;;2.70;;
61617;SDS011;47518;51.776;9.370;2023-03-14T14:15:34;7.90;;;2.40;;
61617;SDS011;47518;51.776;9.370;2023-03-14T14:18:06;5.47;;;3.00;;
61617;SDS011;47518;51.776;9.370;2023-03-14T14:20:36;6.22;;;2.20;;
61617;SDS011;47518;51.776;9.370;2023-03-14T14:25:56;6.43;;;2.40;;
61617;SDS011;47518;51.776;9.370;2023-03-14T14:28:25;6.60;;;2.60;;
61617;SDS011;47518;51.776;9.370;2023-03-14T15:04:43;6.30;;;2.50;;
61617;SDS011;47518;51.776;9.370;2023-03-14T15:07:11;9.70;;;2.50;;
61617;SDS011;47518;51.776;9.370;2023-03-14T15:09:36;8.90;;;2.75;;
61617;SDS011;47518;51.776;9.370;2023-03-14T15:12:01;8.88;;;2.80;;
61617;SDS011;47518;51.776;9.370;2023-03-14T15:14:27;7.22;;;2.80;;
61617;SDS011;47518;51.776;9.370;2023-03-14T15:16:56;5.97;;;2.55;;
61617;SDS011;47518;51.776;9.370;2023-03-14T15:19:22;11.80;;;3.10;;
61617;SDS011;47518;51.776;9.370;2023-03-14T15:21:53;9.20;;;2.65;;
61617;SDS011;47518;51.776;9.370;2023-03-14T15:24:19;7.85;;;2.60;;
61617;SDS011;47518;51.776;9.370;2023-03-14T15:26:44;9.27;;;2.90;;
61617;SDS011;47518;51.776;9.370;2023-03-14T15:29:10;7.65;;;2.80;;
61617;SDS011;47518;51.776;9.370;2023-03-14T15:31:38;11.35;;;2.88;;
61617;SDS011;47518;51.776;9.370;2023-03-14T15:34:05;5.25;;;2.47;;
61617;SDS011;47518;51.776;9.370;2023-03-14T15:36:34;6.07;;;2.47;;
61617;SDS011;47518;51.776;9.370;2023-03-14T15:39:22;12.10;;;2.80;;
61617;SDS011;47518;51.776;9.370;2023-03-14T15:41:47;7.10;;;2.70;;
61617;SDS011;47518;51.776;9.370;2023-03-14T15:44:13;8.95;;;2.80;;
61617;SDS011;47518;51.776;9.370;2023-03-14T15:46:47;11.25;;;2.75;;
61617;SDS011;47518;51.776;9.370;2023-03-14T15:52:09;13.50;;;2.60;;
61617;SDS011;47518;51.776;9.370;2023-03-14T15:54:35;5.93;;;2.50;;
61617;SDS011;47518;51.776;9.370;2023-03-14T15:57:04;12.55;;;3.28;;
61617;SDS011;47518;51.776;9.370;2023-03-14T15:59:34;7.55;;;2.60;;
61617;SDS011;47518;51.776;9.370;2023-03-14T16:02:08;9.60;;;2.83;;
61617;SDS011;47518;51.776;9.370;2023-03-14T16:04:35;5.88;;;2.80;;
61617;SDS011;47518;51.776;9.370;2023-03-14T16:07:03;11.23;;;3.05;;
61617;SDS011;47518;51.776;9.370;2023-03-14T16:09:28;10.35;;;2.80;;
61617;SDS011;47518;51.776;9.370;2023-03-14T16:12:14;8.82;;;2.88;;
61617;SDS011;47518;51.776;9.370;2023-03-14T16:14:59;9.35;;;2.70;;
61617;SDS011;47518;51.776;9.370;2023-03-14T16:17:25;12.10;;;2.60;;
61617;SDS011;47518;51.776;9.370;2023-03-14T16:19:50;10.48;;;2.53;;
61617;SDS011;47518;51.776;9.370;2023-03-14T16:22:19;9.10;;;2.92;;
61617;SDS011;47518;51.776;9.370;2023-03-14T16:24:44;7.65;;;2.70;;
61617;SDS011;47518;51.776;9.370;2023-03-14T16:27:13;10.88;;;2.72;;
61617;SDS011;47518;51.776;9.370;2023-03-14T16:29:39;10.73;;;2.85;;
61617;SDS011;47518;51.776;9.370;2023-03-14T16:32:07;8.68;;;2.50;;
61617;SDS011;47518;51.776;9.370;2023-03-14T16:34:33;12.68;;;2.90;;
61617;SDS011;47518;51.776;9.370;2023-03-14T16:37:06;5.00;;;2.28;;
61617;SDS011;47518;51.776;9.370;2023-03-14T16:39:37;6.38;;;2.40;;
61617;SDS011;47518;51.776;9.370;2023-03-14T16:42:04;6.10;;;2.45;;
61617;SDS011;47518;51.776;9.370;2023-03-14T16:44:29;6.40;;;2.60;;
61617;SDS011;47518;51.776;9.370;2023-03-14T16:46:55;7.22;;;2.60;;
61617;SDS011;47518;51.776;9.370;2023-03-14T16:49:27;6.30;;;3.05;;
61617;SDS011;47518;51.776;9.370;2023-03-14T16:52:08;6.55;;;2.45;;
61617;SDS011;47518;51.776;9.370;2023-03-14T16:54:34;9.13;;;2.80;;
61617;SDS011;47518;51.776;9.370;2023-03-14T16:57:19;5.47;;;2.42;;
61617;SDS011;47518;51.776;9.370;2023-03-14T16:59:47;7.28;;;2.58;;
61617;SDS011;47518;51.776;9.370;2023-03-14T17:02:16;4.13;;;2.35;;
61617;SDS011;47518;51.776;9.370;2023-03-14T17:05:00;7.30;;;2.72;;
61617;SDS011;47518;51.776;9.370;2023-03-14T17:07:25;4.38;;;2.30;;
61617;SDS011;47518;51.776;9.370;2023-03-14T17:09:51;4.65;;;2.20;;
61617;SDS011;47518;51.776;9.370;2023-03-14T17:12:27;9.23;;;2.80;;
61617;SDS011;47518;51.776;9.370;2023-03-14T17:14:53;5.38;;;2.90;;
61617;SDS011;47518;51.776;9.370;2023-03-14T17:17:23;4.53;;;2.42;;
61617;SDS011;47518;51.776;9.370;2023-03-14T17:19:51;5.53;;;2.38;;
61617;SDS011;47518;51.776;9.370;2023-03-14T17:22:22;10.77;;;2.67;;
61617;SDS011;47518;51.776;9.370;2023-03-14T17:24:56;4.50;;;2.38;;
61617;SDS011;47518;51.776;9.370;2023-03-14T17:27:28;8.23;;;2.50;;
61617;SDS011;47518;51.776;9.370;2023-03-14T17:30:26;7.45;;;2.75;;
61617;SDS011;47518;51.776;9.370;2023-03-14T17:32:56;5.05;;;2.50;;
61617;SDS011;47518;51.776;9.370;2023-03-14T17:36:11;9.05;;;3.05;;
61617;SDS011;47518;51.776;9.370;2023-03-14T17:39:14;6.78;;;2.90;;
61617;SDS011;47518;51.776;9.370;2023-03-14T17:41:55;9.65;;;2.70;;
61617;SDS011;47518;51.776;9.370;2023-03-14T17:44:29;8.43;;;2.83;;
61617;SDS011;47518;51.776;9.370;2023-03-14T17:46:56;4.30;;;2.65;;
61617;SDS011;47518;51.776;9.370;2023-03-14T17:55:28;7.50;;;3.00;;
61617;SDS011;47518;51.776;9.370;2023-03-14T17:57:56;3.97;;;2.58;;
61617;SDS011;47518;51.776;9.370;2023-03-14T18:00:32;8.48;;;3.28;;
61617;SDS011;47518;51.776;9.370;2023-03-14T18:03:04;9.43;;;2.92;;
61617;SDS011;47518;51.776;9.370;2023-03-14T18:08:43;9.23;;;2.83;;
61617;SDS011;47518;51.776;9.370;2023-03-14T18:11:12;4.68;;;2.65;;
61617;SDS011;47518;51.776;9.370;2023-03-14T18:16:41;5.10;;;2.58;;
61617;SDS011;47518;51.776;9.370;2023-03-14T18:19:10;10.00;;;2.70;;
61617;SDS011;47518;51.776;9.370;2023-03-14T18:25:04;10.63;;;2.80;;
61617;SDS011;47518;51.776;9.370;2023-03-14T18:27:33;5.10;;;3.13;;
61617;SDS011;47518;51.776;9.370;2023-03-14T18:30:19;6.15;;;2.60;;
61617;SDS011;47518;51.776;9.370;2023-03-14T18:33:32;9.57;;;2.60;;
61617;SDS011;47518;51.776;9.370;2023-03-14T18:36:11;8.63;;;3.42;;
61617;SDS011;47518;51.776;9.370;2023-03-14T18:38:39;10.07;;;3.00;;
61617;SDS011;47518;51.776;9.370;2023-03-14T18:42:00;5.38;;;2.67;;
61617;SDS011;47518;51.776;9.370;2023-03-14T18:44:38;7.20;;;3.03;;
61617;SDS011;47518;51.776;9.370;2023-03-14T18:47:42;8.23;;;2.90;;
61617;SDS011;47518;51.776;9.370;2023-03-14T18:50:31;7.32;;;3.10;;
61617;SDS011;47518;51.776;9.370;2023-03-14T18:53:41;5.78;;;2.60;;
61617;SDS011;47518;51.776;9.370;2023-03-14T18:56:08;9.25;;;3.00;;
61617;SDS011;47518;51.776;9.370;2023-03-14T18:58:47;5.03;;;2.50;;
61617;SDS011;47518;51.776;9.370;2023-03-14T19:01:13;8.70;;;2.70;;
61617;SDS011;47518;51.776;9.370;2023-03-14T19:06:56;5.72;;;3.20;;
61617;SDS011;47518;51.776;9.370;2023-03-14T19:09:31;5.57;;;3.00;;
61617;SDS011;47518;51.776;9.370;2023-03-14T19:11:59;7.40;;;2.88;;
61617;SDS011;47518;51.776;9.370;2023-03-14T19:14:30;6.43;;;2.60;;
61617;SDS011;47518;51.776;9.370;2023-03-14T19:20:14;6.65;;;2.70;;
61617;SDS011;47518;51.776;9.370;2023-03-14T19:23:30;4.10;;;2.78;;
61617;SDS011;47518;51.776;9.370;2023-03-14T19:26:49;6.05;;;2.80;;
61617;SDS011;47518;51.776;9.370;2023-03-14T19:29:17;7.28;;;2.92;;
61617;SDS011;47518;51.776;9.370;2023-03-14T19:35:18;7.60;;;3.13;;
61617;SDS011;47518;51.776;9.370;2023-03-14T19:38:13;7.78;;;2.90;;
61617;SDS011;47518;51.776;9.370;2023-03-14T19:41:11;5.93;;;3.05;;
61617;SDS011;47518;51.776;9.370;2023-03-14T19:47:00;10.88;;;5.57;;
61617;SDS011;47518;51.776;9.370;2023-03-14T19:49:51;8.02;;;3.50;;
61617;SDS011;47518;51.776;9.370;2023-03-14T19:56:41;5.70;;;2.80;;
61617;SDS011;47518;51.776;9.370;2023-03-14T19:59:04;6.80;;;2.88;;
61617;SDS011;47518;51.776;9.370;2023-03-14T20:01:32;8.82;;;2.92;;
61617;SDS011;47518;51.776;9.370;2023-03-14T20:08:15;4.97;;;2.80;;
61617;SDS011;47518;51.776;9.370;2023-03-14T20:13:38;12.20;;;2.92;;
61617;SDS011;47518;51.776;9.370;2023-03-14T20:16:10;8.93;;;3.17;;
61617;SDS011;47518;51.776;9.370;2023-03-14T20:21:29;9.23;;;2.90;;
61617;SDS011;47518;51.776;9.370;2023-03-14T20:26:50;8.27;;;3.05;;
61617;SDS011;47518;51.776;9.370;2023-03-14T20:33:03;8.27;;;3.67;;
61617;SDS011;47518;51.776;9.370;2023-03-14T20:39:16;9.95;;;3.80;;
61617;SDS011;47518;51.776;9.370;2023-03-14T20:45:09;8.38;;;3.60;;
61617;SDS011;47518;51.776;9.370;2023-03-14T20:47:43;6.80;;;3.42;;
61617;SDS011;47518;51.776;9.370;2023-03-14T20:50:32;8.63;;;3.78;;
61617;SDS011;47518;51.776;9.370;2023-03-14T20:53:17;8.15;;;3.67;;
61617;SDS011;47518;51.776;9.370;2023-03-14T20:55:47;8.82;;;3.50;;
61617;SDS011;47518;51.776;9.370;2023-03-14T20:58:20;10.45;;;3.40;;
61617;SDS011;47518;51.776;9.370;2023-03-14T21:00:48;6.65;;;2.95;;
61617;SDS011;47518;51.776;9.370;2023-03-14T21:03:17;6.78;;;3.00;;
61617;SDS011;47518;51.776;9.370;2023-03-14T21:05:58;5.95;;;3.00;;